Time;durP1;ratioP1;P1;durP2;ratioP2;P2;SDS_P1;SDS_P2;PMS_P1;PMS_P2;Temp;Humidity;BMP_temperature;BMP_pressure;BME280_temperature;BME280_humidity;BME280_pressure;Samples;Min_cycle;Max_cycle;Signal;HPM_P1;HPM_P2
2022/11/03 00:02:21;;;;;;;6.03;3.20;;;5.60;99.90;;;;;;6201197;23;20452;-84
2022/11/03 00:04:52;;;;;;;3.92;2.85;;;5.50;99.90;;;;;;6190671;23;20020;-84
2022/11/03 00:07:21;;;;;;;2.60;2.40;;;5.40;99.90;;;;;;6189786;23;20020;-84
2022/11/03 00:09:48;;;;;;;3.33;3.03;;;5.20;99.90;;;;;;6227475;23;20020;-84
2022/11/03 00:12:16;;;;;;;3.97;2.78;;;5.10;99.90;;;;;;6192005;23;20479;-84
2022/11/03 00:14:43;;;;;;;6.78;3.08;;;5.10;99.90;;;;;;6225298;23;20460;-84
2022/11/03 00:17:10;;;;;;;6.57;3.92;;;5.10;99.90;;;;;;6200676;23;20013;-84
2022/11/03 00:19:38;;;;;;;5.80;4.05;;;5.20;99.90;;;;;;6221232;23;20027;-84
2022/11/03 00:22:05;;;;;;;4.00;3.70;;;5.30;99.90;;;;;;6175924;23;20455;-84
2022/11/03 00:25:09;;;;;;;4.07;3.78;;;5.30;99.90;;;;;;6189841;23;20024;-84
2022/11/03 00:27:36;;;;;;;10.48;5.95;;;5.40;99.90;;;;;;6220506;23;20031;-84
2022/11/03 00:30:04;;;;;;;6.53;4.43;;;5.40;99.90;;;;;;6225545;23;20016;-84
2022/11/03 00:32:31;;;;;;;4.70;3.40;;;5.50;99.90;;;;;;6164928;23;20020;-84
2022/11/03 00:34:59;;;;;;;5.75;3.70;;;5.50;99.90;;;;;;6196792;23;20471;-84
2022/11/03 00:37:26;;;;;;;6.68;5.07;;;5.60;99.90;;;;;;6165039;23;20456;-84
2022/11/03 00:39:54;;;;;;;9.02;5.55;;;5.90;99.90;;;;;;6189850;23;20017;-83
2022/11/03 00:42:21;;;;;;;10.38;4.70;;;6.10;99.90;;;;;;6164716;23;20023;-84
2022/11/03 00:44:49;;;;;;;10.68;5.20;;;6.40;99.90;;;;;;6165698;23;20776;-84
2022/11/03 00:47:16;;;;;;;11.23;5.18;;;6.30;99.90;;;;;;6140651;23;20017;-84
2022/11/03 00:49:50;;;;;;;10.70;6.68;;;6.30;99.90;;;;;;6199530;23;20344;-84
2022/11/03 00:52:17;;;;;;;6.22;4.55;;;6.30;99.90;;;;;;6217906;23;20024;-83
2022/11/03 00:54:48;;;;;;;7.72;6.90;;;6.40;99.90;;;;;;6198035;23;20031;-84
2022/11/03 00:57:21;;;;;;;7.28;6.28;;;6.50;99.90;;;;;;6164937;23;20335;-84
2022/11/03 00:59:49;;;;;;;8.88;5.70;;;6.60;99.90;;;;;;6165063;23;20028;-83
2022/11/03 01:02:16;;;;;;;20.15;7.32;;;6.70;99.90;;;;;;6175390;23;20012;-84
2022/11/03 01:07:29;;;;;;;8.05;4.35;;;6.70;99.90;;;;;;6162629;23;20024;-84
2022/11/03 01:09:57;;;;;;;12.15;6.10;;;6.40;99.90;;;;;;6141076;23;20027;-84
2022/11/03 01:12:24;;;;;;;6.68;4.88;;;6.50;99.90;;;;;;6164541;23;20024;-84
2022/11/03 01:14:52;;;;;;;6.60;5.90;;;6.50;99.90;;;;;;6172878;23;20031;-84
2022/11/03 01:17:24;;;;;;;6.18;5.53;;;6.60;99.90;;;;;;6200007;23;20020;-84
2022/11/03 01:19:52;;;;;;;8.15;6.20;;;6.80;99.90;;;;;;6164108;23;20020;-84
2022/11/03 01:22:22;;;;;;;5.45;4.95;;;6.80;99.90;;;;;;6140929;23;20017;-84
2022/11/03 01:24:50;;;;;;;18.48;6.07;;;6.70;99.90;;;;;;6188960;23;20016;-84
2022/11/03 01:27:21;;;;;;;10.20;6.88;;;6.80;99.90;;;;;;6164192;23;20343;-84
2022/11/03 01:29:48;;;;;;;8.13;5.75;;;6.80;99.90;;;;;;6190024;23;20021;-83
2022/11/03 01:32:16;;;;;;;7.60;5.57;;;6.70;99.90;;;;;;6189197;23;20024;-84
2022/11/03 01:34:43;;;;;;;7.03;5.63;;;6.70;99.90;;;;;;6164987;23;20016;-84
2022/11/03 01:37:10;;;;;;;7.47;5.97;;;6.70;99.90;;;;;;6225997;23;20433;-84
2022/11/03 01:39:38;;;;;;;7.85;5.63;;;6.70;99.90;;;;;;6220609;23;20032;-84
2022/11/03 01:42:05;;;;;;;8.18;5.55;;;6.70;99.90;;;;;;6217682;23;20020;-84
2022/11/03 01:44:36;;;;;;;12.35;7.18;;;6.60;99.90;;;;;;6189237;23;20021;-84
2022/11/03 01:52:35;;;;;;;10.55;7.32;;;6.70;99.90;;;;;;6269342;22;20020;-84
2022/11/03 01:55:20;;;;;;;12.68;6.75;;;6.80;99.90;;;;;;6199509;22;20645;-84
2022/11/03 01:57:58;;;;;;;11.02;7.88;;;6.80;99.90;;;;;;6224599;22;20016;-83
2022/11/03 02:00:25;;;;;;;17.20;5.85;;;6.90;99.90;;;;;;6199008;22;20451;-84
2022/11/03 02:02:53;;;;;;;8.05;6.38;;;6.90;99.90;;;;;;6223464;22;20019;-84
2022/11/03 02:05:24;;;;;;;8.93;6.45;;;7.00;99.90;;;;;;6260976;22;20427;-83
2022/11/03 02:08:09;;;;;;;10.93;8.73;;;7.00;99.90;;;;;;6280026;22;20030;-84
2022/11/03 02:10:37;;;;;;;13.77;7.72;;;7.00;99.90;;;;;;6285837;22;20443;-84
2022/11/03 02:13:16;;;;;;;10.45;6.95;;;7.00;99.90;;;;;;6286748;22;20011;-82
2022/11/03 02:15:47;;;;;;;18.08;7.45;;;7.00;99.90;;;;;;6249668;22;20339;-83
2022/11/03 02:18:23;;;;;;;6.57;5.65;;;7.10;99.90;;;;;;6224243;22;20027;-83
2022/11/03 02:21:02;;;;;;;13.82;7.97;;;7.10;99.90;;;;;;6223385;22;20020;-83
2022/11/03 02:23:56;;;;;;;11.95;7.88;;;7.10;99.90;;;;;;6223342;22;20016;-83
2022/11/03 02:26:23;;;;;;;12.88;9.07;;;7.10;99.90;;;;;;6234326;22;20031;-84
2022/11/03 02:28:51;;;;;;;14.82;9.20;;;7.10;99.90;;;;;;6199774;22;20365;-84
2022/11/03 02:31:38;;;;;;;13.93;7.90;;;7.10;99.90;;;;;;6249227;22;20016;-83
2022/11/03 02:34:42;;;;;;;17.63;11.15;;;7.10;99.90;;;;;;6260192;22;20007;-84
2022/11/03 02:37:15;;;;;;;19.58;9.65;;;7.00;99.90;;;;;;6193681;22;20455;-83
2022/11/03 02:39:55;;;;;;;11.45;8.63;;;6.90;99.90;;;;;;6223192;22;20026;-84
2022/11/03 02:42:24;;;;;;;15.30;10.88;;;7.00;99.90;;;;;;6223598;22;20012;-84
2022/11/03 02:44:54;;;;;;;9.68;8.48;;;6.90;99.90;;;;;;6259928;22;20011;-84
2022/11/03 02:47:24;;;;;;;16.27;10.38;;;6.90;99.90;;;;;;6248358;22;20063;-84
2022/11/03 02:49:54;;;;;;;12.05;8.82;;;6.90;99.90;;;;;;6225119;22;20473;-84
2022/11/03 02:52:51;;;;;;;15.63;10.32;;;6.90;99.90;;;;;;6223593;22;20015;-84
2022/11/03 02:55:57;;;;;;;19.70;11.30;;;6.80;99.90;;;;;;6246017;22;20031;-84
2022/11/03 02:58:41;;;;;;;13.88;9.05;;;6.90;99.90;;;;;;6285853;22;20008;-83
2022/11/03 03:01:31;;;;;;;16.75;11.50;;;6.90;99.90;;;;;;6249639;22;20016;-84
2022/11/03 03:04:02;;;;;;;15.95;11.43;;;6.80;99.90;;;;;;6252488;22;20038;-83
2022/11/03 03:06:38;;;;;;;21.27;9.88;;;6.80;99.90;;;;;;6198251;22;20015;-84
2022/11/03 03:09:10;;;;;;;18.25;9.75;;;6.70;99.90;;;;;;6234976;22;20019;-84
2022/11/03 03:11:42;;;;;;;108.03;19.20;;;6.60;99.90;;;;;;6253828;22;20020;-84
2022/11/03 03:14:14;;;;;;;;;;;6.50;99.90;;;;;;6199854;22;20016;-84
2022/11/03 03:16:46;;;;;;;12.73;8.35;;;6.20;99.90;;;;;;6276166;22;19922;-83
2022/11/03 03:19:46;;;;;;;;;;;6.00;99.90;;;;;;6230697;22;20466;-83
2022/11/03 03:22:33;;;;;;;20.73;8.82;;;6.10;99.90;;;;;;6195728;22;20336;-84
2022/11/03 03:25:48;;;;;;;23.05;7.95;;;6.10;99.90;;;;;;6259456;22;20478;-84
2022/11/03 03:28:24;;;;;;;17.13;9.00;;;5.90;99.90;;;;;;6278049;22;20020;-84
2022/11/03 03:30:55;;;;;;;11.13;7.95;;;5.80;99.90;;;;;;6256778;22;20375;-83
2022/11/03 03:33:24;;;;;;;10.13;6.60;;;5.80;99.90;;;;;;6259658;22;20019;-83
2022/11/03 03:35:54;;;;;;;14.57;10.00;;;5.60;99.90;;;;;;6279387;22;20031;-83
2022/11/03 03:38:29;;;;;;;13.07;10.25;;;5.70;99.90;;;;;;6258905;22;20019;-83
2022/11/03 03:40:58;;;;;;;19.25;11.93;;;5.80;99.90;;;;;;6286337;22;20018;-84
2022/11/03 03:43:28;;;;;;;17.25;13.18;;;5.90;99.90;;;;;;6198723;22;20023;-84
2022/11/03 03:45:59;;;;;;;29.98;15.60;;;6.20;99.90;;;;;;6259978;22;20023;-83
2022/11/03 03:48:27;;;;;;;51.50;15.15;;;6.30;99.90;;;;;;6248408;22;20028;-83
2022/11/03 03:50:55;;;;;;;57.13;17.45;;;6.40;99.90;;;;;;6283685;22;20016;-83
2022/11/03 03:53:27;;;;;;;75.00;20.60;;;6.50;99.90;;;;;;6286669;22;20015;-83
2022/11/03 03:55:56;;;;;;;48.58;16.20;;;6.60;99.90;;;;;;6279387;22;20699;-83
2022/11/03 03:58:23;;;;;;;61.00;17.40;;;6.50;99.90;;;;;;6257924;22;20351;-83
2022/11/03 04:00:51;;;;;;;64.43;16.48;;;6.50;99.90;;;;;;6249281;22;20012;-83
2022/11/03 04:03:21;;;;;;;82.43;16.58;;;6.50;99.90;;;;;;6281956;22;20031;-83
2022/11/03 04:05:49;;;;;;;75.72;19.15;;;6.50;99.90;;;;;;6286559;22;20309;-83
2022/11/03 04:08:17;;;;;;;77.45;18.15;;;6.50;99.90;;;;;;6277503;22;20035;-84
2022/11/03 04:22:15;;;;;;;70.35;15.63;;;6.40;99.90;;;;;;6286560;22;20011;-83
2022/11/03 04:24:47;;;;;;;37.13;10.98;;;6.40;99.90;;;;;;6275695;22;20027;-83
2022/11/03 04:27:25;;;;;;;53.42;13.43;;;6.40;99.90;;;;;;6254150;22;20039;-83
2022/11/03 04:30:05;;;;;;;67.97;14.38;;;6.40;99.90;;;;;;6285145;22;20023;-84
2022/11/03 04:32:33;;;;;;;57.58;15.10;;;6.30;99.90;;;;;;6245039;22;20328;-83
2022/11/03 04:35:00;;;;;;;131.57;16.30;;;6.30;99.90;;;;;;6230918;22;20020;-83
2022/11/03 04:37:28;;;;;;;39.03;12.98;;;6.30;99.90;;;;;;6287363;22;20016;-83
2022/11/03 04:40:00;;;;;;;29.45;11.70;;;6.20;99.90;;;;;;6250159;22;20023;-83
2022/11/03 04:42:30;;;;;;;;;;;6.30;99.90;;;;;;6287391;22;20744;-83
2022/11/03 04:45:01;;;;;;;30.33;8.95;;;6.30;99.90;;;;;;6261190;22;19923;-83
2022/11/03 04:47:29;;;;;;;53.75;10.20;;;6.20;99.90;;;;;;6224943;22;20023;-83
2022/11/03 04:49:58;;;;;;;20.60;9.38;;;6.20;99.90;;;;;;6200803;22;20012;-83
2022/11/03 04:52:25;;;;;;;14.93;8.65;;;6.20;99.90;;;;;;6199077;22;20035;-83
2022/11/03 04:55:32;;;;;;;34.75;10.25;;;6.20;99.90;;;;;;6285330;22;20020;-83
2022/11/03 04:58:09;;;;;;;30.80;9.40;;;6.20;99.90;;;;;;6235291;22;20016;-83
2022/11/03 05:00:39;;;;;;;25.60;9.40;;;6.20;99.90;;;;;;6249963;22;20447;-83
2022/11/03 05:03:15;;;;;;;16.35;9.07;;;6.20;99.90;;;;;;6231916;22;20012;-83
2022/11/03 05:05:42;;;;;;;14.30;8.52;;;6.20;99.90;;;;;;6225421;22;20016;-83
2022/11/03 05:08:11;;;;;;;18.55;10.23;;;6.20;99.90;;;;;;6249822;22;20343;-83
2022/11/03 05:10:38;;;;;;;13.57;8.95;;;6.20;99.90;;;;;;6286114;22;20023;-83
2022/11/03 05:13:23;;;;;;;34.25;10.95;;;6.20;99.90;;;;;;6235826;22;20011;-83
2022/11/03 05:15:53;;;;;;;36.45;10.95;;;6.20;99.90;;;;;;6253978;22;20016;-83
2022/11/03 05:18:26;;;;;;;100.30;11.82;;;6.20;99.90;;;;;;6235077;22;20008;-81
2022/11/03 05:21:04;;;;;;;57.65;13.35;;;6.20;99.90;;;;;;6260704;22;20015;-83
2022/11/03 05:24:04;;;;;;;48.25;10.43;;;6.10;99.90;;;;;;6224036;22;20016;-83
2022/11/03 05:26:33;;;;;;;29.25;8.90;;;6.00;99.90;;;;;;6217763;22;20015;-82
2022/11/03 05:29:40;;;;;;;39.40;7.93;;;5.90;99.90;;;;;;6225362;22;20443;-83
2022/11/03 05:32:18;;;;;;;40.63;13.52;;;5.90;99.90;;;;;;6224419;22;20019;-83
2022/11/03 05:34:53;;;;;;;33.60;10.80;;;5.80;99.90;;;;;;6258447;22;20019;-83
2022/11/03 05:37:30;;;;;;;30.42;11.13;;;5.80;99.90;;;;;;6224755;22;20015;-83
2022/11/03 05:40:10;;;;;;;35.13;11.35;;;5.80;99.90;;;;;;6253421;22;20028;-83
2022/11/03 05:42:41;;;;;;;27.50;8.23;;;5.80;99.90;;;;;;6223956;22;20019;-83
2022/11/03 05:45:39;;;;;;;32.47;9.95;;;5.80;99.90;;;;;;6250331;22;20038;-83
2022/11/03 05:48:39;;;;;;;66.22;11.88;;;5.80;99.90;;;;;;6227174;22;20651;-83
2022/11/03 05:51:22;;;;;;;19.13;8.40;;;5.80;99.90;;;;;;6244933;22;20027;-83
2022/11/03 05:53:53;;;;;;;12.55;8.10;;;5.80;99.90;;;;;;6287532;22;20015;-83
2022/11/03 05:56:23;;;;;;;31.92;11.95;;;5.80;99.90;;;;;;6224044;22;20019;-83
2022/11/03 05:58:53;;;;;;;23.33;8.10;;;5.90;99.90;;;;;;6257736;22;20027;-83
2022/11/03 06:01:27;;;;;;;35.95;10.75;;;5.90;99.90;;;;;;6254050;22;20327;-83
2022/11/03 06:03:59;;;;;;;31.52;9.85;;;5.90;99.90;;;;;;6280026;22;20031;-83
2022/11/03 06:06:37;;;;;;;21.23;8.43;;;5.90;99.90;;;;;;6258394;22;20715;-83
2022/11/03 06:09:19;;;;;;;78.22;11.18;;;5.80;99.90;;;;;;6224880;22;20016;-83
2022/11/03 06:11:47;;;;;;;26.20;8.90;;;5.70;99.90;;;;;;6222167;22;20028;-83
2022/11/03 06:14:21;;;;;;;29.42;12.48;;;5.80;99.90;;;;;;6234623;22;20019;-83
2022/11/03 06:17:00;;;;;;;17.30;8.82;;;5.80;99.90;;;;;;6199135;22;20028;-83
2022/11/03 06:19:34;;;;;;;20.23;9.30;;;5.80;99.90;;;;;;6198996;22;20023;-83
2022/11/03 06:22:28;;;;;;;31.25;12.68;;;5.80;99.90;;;;;;6224051;22;20015;-83
2022/11/03 06:25:11;;;;;;;27.92;7.32;;;5.90;99.90;;;;;;6233017;22;20019;-83
2022/11/03 06:27:38;;;;;;;26.38;10.70;;;5.90;99.90;;;;;;6198280;22;20040;-83
2022/11/03 06:30:27;;;;;;;21.77;9.05;;;5.90;99.90;;;;;;6260063;22;20008;-83
2022/11/03 06:33:20;;;;;;;40.25;11.93;;;6.00;99.90;;;;;;6151617;23;20024;-83
2022/11/03 06:35:51;;;;;;;32.67;6.85;;;6.10;99.90;;;;;;6161322;23;20025;-83
2022/11/03 06:38:26;;;;;;;94.32;13.07;;;6.10;99.90;;;;;;6132972;23;20064;-83
2022/11/03 06:40:54;;;;;;;31.75;10.32;;;6.10;99.90;;;;;;6140607;23;20036;-83
2022/11/03 06:43:41;;;;;;;46.67;14.00;;;6.10;99.90;;;;;;6181937;22;20021;-84
2022/11/03 06:46:17;;;;;;;82.63;16.48;;;6.20;99.90;;;;;;6192193;23;20025;-84
2022/11/03 06:48:45;;;;;;;22.50;9.85;;;6.20;99.90;;;;;;6182300;23;20032;-83
2022/11/03 06:51:20;;;;;;;20.25;8.02;;;6.20;99.90;;;;;;6132214;23;20032;-84
2022/11/03 06:54:52;;;;;;;23.83;8.90;;;6.20;99.90;;;;;;6185783;22;20125;-83
2022/11/03 06:57:20;;;;;;;78.43;12.43;;;6.10;99.90;;;;;;6172183;23;20029;-84
2022/11/03 06:59:49;;;;;;;21.63;7.53;;;6.10;99.90;;;;;;6132170;23;20052;-84
2022/11/03 07:03:09;;;;;;;22.35;7.88;;;6.10;99.90;;;;;;6157125;23;20017;-83
2022/11/03 07:05:40;;;;;;;37.05;8.55;;;6.10;99.90;;;;;;6200892;22;20035;-85
2022/11/03 07:08:25;;;;;;;17.60;8.75;;;6.10;99.90;;;;;;6222601;22;20020;-84
2022/11/03 07:11:14;;;;;;;15.73;9.00;;;6.20;99.90;;;;;;6247788;22;20012;-85
2022/11/03 07:13:49;;;;;;;20.55;7.05;;;6.20;99.90;;;;;;6245646;23;20019;-83
2022/11/03 07:16:39;;;;;;;32.13;8.57;;;6.30;99.90;;;;;;6169012;23;20024;-84
2022/11/03 07:19:20;;;;;;;10.68;8.73;;;6.10;99.90;;;;;;6251564;22;20016;-85
2022/11/03 07:21:55;;;;;;;21.35;11.38;;;6.20;99.90;;;;;;6255460;23;20016;-84
2022/11/03 07:24:25;;;;;;;24.38;8.02;;;6.30;99.90;;;;;;6246422;23;20024;-84
2022/11/03 07:26:59;;;;;;;12.60;8.32;;;6.40;99.90;;;;;;6217307;23;20012;-84
2022/11/03 07:29:29;;;;;;;10.07;7.80;;;6.40;99.90;;;;;;6193737;23;20020;-85
2022/11/03 07:32:00;;;;;;;8.70;7.50;;;6.40;99.90;;;;;;6221391;23;20016;-85
2022/11/03 07:34:32;;;;;;;13.25;8.07;;;6.60;99.90;;;;;;6167129;22;20024;-84
2022/11/03 07:37:17;;;;;;;15.15;9.38;;;6.60;99.90;;;;;;6194176;23;20028;-85
2022/11/03 07:39:49;;;;;;;7.28;6.03;;;6.60;99.90;;;;;;6192764;23;20020;-84
2022/11/03 07:42:27;;;;;;;9.32;8.45;;;6.70;99.90;;;;;;6204243;22;20016;-84
2022/11/03 07:45:37;;;;;;;12.73;7.80;;;6.80;99.90;;;;;;6245866;23;20013;-83
2022/11/03 07:48:35;;;;;;;7.93;6.22;;;6.70;99.90;;;;;;6154108;23;20028;-85
2022/11/03 07:51:36;;;;;;;16.23;14.38;;;6.90;99.90;;;;;;6167300;23;20020;-84
2022/11/03 07:54:27;;;;;;;7.13;6.47;;;6.90;99.90;;;;;;6218422;23;20434;-84
2022/11/03 07:57:22;;;;;;;8.10;7.30;;;6.90;99.90;;;;;;6145013;23;20024;-83
2022/11/03 08:00:07;;;;;;;6.93;5.80;;;6.90;99.90;;;;;;6218228;23;20028;-84
2022/11/03 08:02:59;;;;;;;15.63;8.45;;;7.10;99.90;;;;;;6192536;22;20027;-82
2022/11/03 08:05:27;;;;;;;9.88;7.60;;;7.10;99.90;;;;;;6218927;23;20012;-83
2022/11/03 08:07:58;;;;;;;11.30;7.88;;;7.10;99.90;;;;;;6196950;23;20031;-84
2022/11/03 08:10:27;;;;;;;10.18;9.18;;;7.30;99.90;;;;;;6192614;22;20013;-82
2022/11/03 08:12:54;;;;;;;16.35;7.80;;;7.40;99.90;;;;;;6195575;23;20024;-83
2022/11/03 08:15:22;;;;;;;12.05;6.82;;;7.50;99.90;;;;;;6200927;23;20028;-84
2022/11/03 08:17:49;;;;;;;7.38;5.80;;;7.50;99.90;;;;;;6170532;23;20479;-84
2022/11/03 08:20:22;;;;;;;11.25;9.18;;;7.60;99.90;;;;;;6170460;23;20351;-84
2022/11/03 08:22:53;;;;;;;9.60;8.23;;;7.70;99.90;;;;;;6193752;23;20017;-84
2022/11/03 08:25:41;;;;;;;8.38;6.45;;;7.80;99.90;;;;;;6245568;23;20020;-84
2022/11/03 08:28:13;;;;;;;9.13;8.20;;;7.70;99.90;;;;;;6219288;23;20028;-84
2022/11/03 08:30:48;;;;;;;8.75;7.72;;;7.70;99.90;;;;;;6226271;23;20020;-83
2022/11/03 08:33:19;;;;;;;10.88;7.90;;;7.70;99.90;;;;;;6256790;23;20015;-82
2022/11/03 08:35:46;;;;;;;8.52;6.60;;;7.70;99.90;;;;;;6248932;23;20028;-83
2022/11/03 08:38:14;;;;;;;8.68;7.35;;;7.80;99.90;;;;;;6190531;23;20455;-83
2022/11/03 08:40:42;;;;;;;9.63;8.55;;;7.90;99.90;;;;;;6164983;23;20359;-83
2022/11/03 08:43:09;;;;;;;8.38;6.43;;;7.90;99.90;;;;;;6221043;23;20442;-83
2022/11/03 08:45:37;;;;;;;11.52;8.77;;;7.70;99.90;;;;;;6252779;23;20042;-83
2022/11/03 08:48:05;;;;;;;15.18;6.68;;;7.80;99.90;;;;;;6189691;23;20024;-82
2022/11/03 08:50:33;;;;;;;7.90;7.10;;;7.70;99.90;;;;;;6190574;22;20020;-82
2022/11/03 08:53:01;;;;;;;11.65;8.93;;;7.70;99.90;;;;;;6191749;23;20494;-83
2022/11/03 08:56:33;;;;;;;7.97;6.65;;;7.90;99.90;;;;;;6189299;23;20020;-83
2022/11/03 08:59:01;;;;;;;9.15;7.50;;;8.00;99.90;;;;;;6247947;22;20072;-82
2022/11/03 09:01:28;;;;;;;7.63;6.78;;;8.20;99.90;;;;;;6215199;23;20426;-82
2022/11/03 09:03:55;;;;;;;10.40;7.53;;;8.20;99.90;;;;;;6213718;23;20343;-81
2022/11/03 09:06:23;;;;;;;8.00;7.20;;;8.20;99.90;;;;;;6165113;23;20561;-81
2022/11/03 09:08:50;;;;;;;13.77;9.43;;;8.30;99.90;;;;;;6164599;23;20036;-82
2022/11/03 09:11:38;;;;;;;15.27;7.53;;;8.30;99.90;;;;;;6193808;23;20027;-81
2022/11/03 09:14:47;;;;;;;8.30;5.85;;;8.10;99.90;;;;;;6246557;23;20581;-88
2022/11/03 09:19:16;;;;;;;6.65;5.80;;;8.10;99.90;;;;;;6253712;22;20027;-88
2022/11/03 09:22:11;;;;;;;11.07;7.18;;;8.10;99.90;;;;;;6195420;23;20465;-87
2022/11/03 09:30:02;;;;;;;5.97;5.40;;;8.20;99.90;;;;;;6256422;23;20023;-85
2022/11/03 09:33:26;;;;;;;8.07;7.28;;;8.30;99.90;;;;;;6194240;23;20075;-87
2022/11/03 09:36:39;;;;;;;7.20;6.47;;;8.30;99.90;;;;;;6228910;23;20351;-82
2022/11/03 09:39:07;;;;;;;8.68;7.82;;;8.20;99.90;;;;;;6169273;23;20024;-83
2022/11/03 09:41:34;;;;;;;8.02;5.35;;;8.50;99.90;;;;;;6230118;23;20013;-83
2022/11/03 09:44:25;;;;;;;7.63;6.93;;;8.70;99.90;;;;;;6173249;23;20024;-84
2022/11/03 09:46:53;;;;;;;10.25;7.32;;;8.80;99.90;;;;;;6219465;23;20012;-80
2022/11/03 09:49:25;;;;;;;8.43;6.95;;;8.80;99.90;;;;;;6230202;23;20008;-81
2022/11/03 09:51:54;;;;;;;11.35;8.05;;;8.80;99.90;;;;;;6249676;23;20039;-81
2022/11/03 09:54:22;;;;;;;8.18;6.50;;;8.70;99.90;;;;;;6204428;22;20024;-81
2022/11/03 09:56:50;;;;;;;10.73;6.53;;;8.60;99.90;;;;;;6255493;23;20440;-80
2022/11/03 09:59:19;;;;;;;11.23;8.20;;;8.60;99.90;;;;;;6225214;23;20035;-81
2022/11/03 10:01:49;;;;;;;16.17;7.95;;;8.60;99.90;;;;;;6229851;23;20016;-80
2022/11/03 10:04:23;;;;;;;8.77;6.10;;;8.50;99.90;;;;;;6220987;23;20024;-81
2022/11/03 10:06:51;;;;;;;8.48;7.53;;;8.60;99.90;;;;;;6253639;23;20017;-80
2022/11/03 10:09:19;;;;;;;7.13;6.43;;;8.70;99.90;;;;;;6256311;23;20016;-81
2022/11/03 10:11:47;;;;;;;34.47;4.68;;;8.70;99.90;;;;;;6218985;23;20459;-82
2022/11/03 10:14:16;;;;;;;15.90;8.77;;;8.70;99.90;;;;;;6194132;23;20020;-81
2022/11/03 10:16:50;;;;;;;9.80;7.85;;;8.50;99.90;;;;;;6168716;23;20024;-82
2022/11/03 10:19:20;;;;;;;9.25;7.72;;;8.70;99.90;;;;;;6225346;23;20027;-82
2022/11/03 10:21:47;;;;;;;10.07;8.05;;;9.00;99.90;;;;;;6256300;23;20023;-82
2022/11/03 10:24:15;;;;;;;6.13;5.47;;;9.30;99.90;;;;;;6245639;22;20347;-80
2022/11/03 10:26:51;;;;;;;6.55;5.75;;;9.30;99.90;;;;;;6253421;23;20023;-80
2022/11/03 10:29:26;;;;;;;8.38;7.25;;;9.20;99.90;;;;;;6256113;23;20435;-81
2022/11/03 10:31:56;;;;;;;7.03;6.32;;;9.10;99.90;;;;;;6218055;23;20604;-80
2022/11/03 10:34:39;;;;;;;8.05;6.93;;;8.90;99.90;;;;;;6192631;23;20023;-81
2022/11/03 10:37:23;;;;;;;9.27;7.53;;;9.00;99.90;;;;;;6229066;23;20023;-81
2022/11/03 10:39:53;;;;;;;10.57;5.90;;;9.10;99.90;;;;;;6222734;23;20213;-81
2022/11/03 10:42:22;;;;;;;14.50;9.05;;;9.30;99.90;;;;;;6255778;23;20019;-80
2022/11/03 10:44:54;;;;;;;8.10;6.65;;;9.20;99.90;;;;;;6244471;23;20031;-81
2022/11/03 10:47:33;;;;;;;8.77;6.95;;;9.20;99.90;;;;;;6223966;23;20028;-80
2022/11/03 10:50:21;;;;;;;8.40;5.97;;;9.10;99.90;;;;;;6228880;23;20013;-80
2022/11/03 10:52:49;;;;;;;8.13;6.30;;;9.20;99.90;;;;;;6217680;23;20027;-80
2022/11/03 10:55:18;;;;;;;12.75;7.78;;;9.40;99.90;;;;;;6193408;23;20016;-80
2022/11/03 10:57:56;;;;;;;10.70;7.10;;;9.70;99.90;;;;;;6217711;23;20023;-81
2022/11/03 11:00:24;;;;;;;9.52;6.18;;;9.80;99.90;;;;;;6246511;23;20360;-81
2022/11/03 11:02:57;;;;;;;8.35;7.43;;;9.90;99.90;;;;;;6252286;22;20633;-81
2022/11/03 11:05:25;;;;;;;16.50;8.82;;;9.90;99.90;;;;;;6255742;23;20016;-82
2022/11/03 11:07:53;;;;;;;11.13;7.63;;;10.00;99.90;;;;;;6168374;23;20034;-81
2022/11/03 11:10:24;;;;;;;9.25;6.53;;;10.10;99.90;;;;;;6168388;22;20020;-82
2022/11/03 11:13:05;;;;;;;9.88;7.82;;;10.20;99.90;;;;;;6229259;23;20012;-81
2022/11/03 11:15:40;;;;;;;9.90;8.23;;;10.30;99.90;;;;;;6218728;23;20016;-82
2022/11/03 11:18:08;;;;;;;8.93;6.32;;;10.40;99.90;;;;;;6193069;23;20023;-81
2022/11/03 11:20:40;;;;;;;6.97;5.70;;;10.40;99.90;;;;;;6193312;23;20012;-81
2022/11/03 11:23:34;;;;;;;12.63;6.35;;;10.40;99.90;;;;;;6225536;23;20016;-82
2022/11/03 11:26:09;;;;;;;10.85;7.15;;;10.40;99.90;;;;;;6210190;23;20016;-81
2022/11/03 11:28:39;;;;;;;9.80;7.00;;;10.50;99.90;;;;;;6246229;23;20028;-82
2022/11/03 11:31:21;;;;;;;8.57;7.30;;;10.40;99.90;;;;;;6251750;22;20020;-81
2022/11/03 11:33:49;;;;;;;7.18;6.18;;;10.60;99.90;;;;;;6229057;23;20373;-81
2022/11/03 11:36:22;;;;;;;7.50;6.80;;;10.80;99.90;;;;;;6246708;23;20020;-82
2022/11/03 11:38:54;;;;;;;12.45;7.72;;;11.00;99.90;;;;;;6253156;22;20024;-82
2022/11/03 11:42:01;;;;;;;12.85;6.50;;;11.10;99.90;;;;;;6218683;23;20023;-82
2022/11/03 11:44:38;;;;;;;7.95;7.15;;;11.10;99.90;;;;;;6245884;23;20060;-81
2022/11/03 11:47:28;;;;;;;7.28;6.45;;;11.20;99.90;;;;;;6253905;22;20340;-82
2022/11/03 11:50:16;;;;;;;13.70;9.02;;;11.30;99.90;;;;;;6257893;23;20332;-82
2022/11/03 11:52:57;;;;;;;8.80;6.85;;;11.40;99.90;;;;;;6214312;23;20344;-81
2022/11/03 12:01:34;;;;;;;;;;;;;;;;;;;;;
2022/11/03 12:03:59;;;;;;;8.10;5.67;;;11.50;99.90;;;;;;6218731;22;20024;-83
2022/11/03 12:06:38;;;;;;;9.65;7.88;;;11.80;99.90;;;;;;6224104;23;20064;-85
2022/11/03 12:10:08;;;;;;;8.25;7.55;;;12.00;99.90;;;;;;6226988;23;20012;-81
2022/11/03 12:12:36;;;;;;;8.73;6.68;;;12.10;99.90;;;;;;6187897;23;20040;-84
2022/11/03 12:15:04;;;;;;;11.25;6.30;;;12.30;99.90;;;;;;6222126;23;20585;-82
2022/11/03 12:17:32;;;;;;;7.60;6.72;;;12.20;99.90;;;;;;6227182;23;20013;-81
2022/11/03 12:20:20;;;;;;;7.53;5.78;;;11.90;99.90;;;;;;6220006;22;20023;-83
2022/11/03 12:22:47;;;;;;;8.82;6.00;;;11.80;99.90;;;;;;6217014;23;20016;-82
2022/11/03 12:25:54;;;;;;;6.90;6.28;;;11.80;99.90;;;;;;6165483;23;20023;-84
2022/11/03 12:28:33;;;;;;;10.65;6.68;;;11.60;99.90;;;;;;6216346;23;20428;-84
2022/11/03 12:31:01;;;;;;;7.35;6.38;;;11.60;99.90;;;;;;6223804;23;20027;-84
2022/11/03 12:33:29;;;;;;;13.70;6.57;;;11.70;99.90;;;;;;6225884;23;20306;-84
2022/11/03 12:35:57;;;;;;;9.52;7.65;;;11.80;99.90;;;;;;6216680;22;20031;-84
2022/11/03 12:38:24;;;;;;;9.10;6.72;;;12.00;99.90;;;;;;6214228;23;20036;-84
2022/11/03 12:40:52;;;;;;;9.13;6.60;;;12.30;99.90;;;;;;6224926;23;20520;-83
2022/11/03 12:43:23;;;;;;;16.55;6.97;;;12.50;99.90;;;;;;6210052;23;20352;-87
2022/11/03 12:45:50;;;;;;;8.53;5.63;;;12.80;99.90;;;;;;6220905;23;20063;-84
2022/11/03 12:48:21;;;;;;;6.95;4.70;;;12.90;99.90;;;;;;6213331;23;20259;-83
2022/11/03 12:50:49;;;;;;;11.23;6.18;;;12.80;99.90;;;;;;6219844;22;20475;-83
2022/11/03 12:53:16;;;;;;;6.72;5.15;;;12.80;99.90;;;;;;6210860;23;20340;-84
2022/11/03 12:55:44;;;;;;;15.40;9.30;;;12.80;99.90;;;;;;6214398;23;20035;-82
2022/11/03 12:58:13;;;;;;;9.70;5.32;;;12.70;99.90;;;;;;6221624;23;20020;-83
2022/11/03 13:00:40;;;;;;;7.70;6.22;;;12.60;99.90;;;;;;6210663;23;20035;-80
2022/11/03 13:03:08;;;;;;;10.32;6.53;;;12.60;99.90;;;;;;6217168;23;20448;-80
2022/11/03 13:05:35;;;;;;;10.30;9.23;;;12.30;99.90;;;;;;6222610;23;20017;-81
2022/11/03 13:08:03;;;;;;;14.07;7.05;;;12.20;99.90;;;;;;6214444;22;20024;-80
2022/11/03 13:10:30;;;;;;;11.07;5.68;;;12.20;99.90;;;;;;6184770;23;20016;-80
2022/11/03 13:12:58;;;;;;;15.20;8.57;;;12.10;99.90;;;;;;6186191;23;20016;-81
2022/11/03 13:15:25;;;;;;;9.52;6.68;;;12.00;99.90;;;;;;6217177;22;20032;-79
2022/11/03 13:17:53;;;;;;;9.35;6.00;;;12.00;99.90;;;;;;6221847;23;20428;-80
2022/11/03 13:20:43;;;;;;;9.70;6.07;;;12.10;99.90;;;;;;6211990;23;20024;-81
2022/11/03 13:23:11;;;;;;;8.40;6.75;;;12.10;99.90;;;;;;6216983;23;20021;-82
2022/11/03 13:25:40;;;;;;;9.07;7.55;;;12.00;99.90;;;;;;6220417;23;20031;-83
2022/11/03 13:28:08;;;;;;;7.03;5.40;;;12.10;99.90;;;;;;6212417;23;20012;-83
2022/11/03 13:30:36;;;;;;;6.57;5.43;;;12.20;99.90;;;;;;6220561;22;20016;-83
2022/11/03 13:33:03;;;;;;;9.00;6.82;;;12.30;99.90;;;;;;6210711;23;20021;-80
2022/11/03 13:35:31;;;;;;;9.90;8.00;;;12.40;99.90;;;;;;6215304;23;20444;-80
2022/11/03 13:37:58;;;;;;;7.10;5.97;;;12.40;99.90;;;;;;6221828;23;20020;-80
2022/11/03 13:40:26;;;;;;;10.68;5.85;;;12.40;99.90;;;;;;6212920;22;20021;-80
2022/11/03 13:43:13;;;;;;;7.70;6.82;;;12.40;99.90;;;;;;6164250;23;20036;-82
2022/11/03 13:45:40;;;;;;;7.65;6.35;;;12.50;99.90;;;;;;6196174;23;20024;-82
2022/11/03 13:48:08;;;;;;;9.57;7.75;;;12.50;99.90;;;;;;6209206;23;20032;-82
2022/11/03 13:50:55;;;;;;;10.60;6.25;;;12.60;99.90;;;;;;6185348;23;20021;-82
2022/11/03 13:53:23;;;;;;;6.47;5.40;;;12.40;99.90;;;;;;6215339;23;20039;-80
2022/11/03 13:56:15;;;;;;;8.48;7.35;;;12.50;99.90;;;;;;6169161;23;20448;-82
2022/11/03 13:58:49;;;;;;;10.70;8.13;;;12.40;99.90;;;;;;6198961;23;20452;-82
2022/11/03 14:01:37;;;;;;;16.15;6.68;;;12.30;99.90;;;;;;6169715;23;20016;-80
2022/11/03 14:04:05;;;;;;;11.18;7.25;;;12.20;99.90;;;;;;6214410;23;20028;-80